Wednesday, June 20, 2018, 10:38 PM GMT
Back to Local

CYZX, Greenwood, N. S.

Location: , , Canada Lat: 44.983
Local Time: 10:38 PM GMT (22:38 GMT) Lon: -64.917
Time Zone: GMT Elev: 91 ft

Show me the last for .
Show Decoded

2018-06-20 22:00 METAR CYZX 202200Z 24017G30KT 15SM BKN250 23/04 A2970 RMK CI6 SLP058 =
2018-06-20 21:00 METAR CYZX 202100Z 25020G30KT 15SM SCT250 24/05 A2971 RMK CI4 SLP062 =
2018-06-20 20:00 METAR CYZX 202000Z 24022G33KT 15SM SCT250 24/06 A2971 RMK CI3 SLP061 =
2018-06-20 19:00 METAR CYZX 201900Z 24025G37KT 15SM FEW250 25/05 A2972 RMK CI2 SLP063 =
2018-06-20 18:00 METAR CYZX 201800Z 24019G28KT 15SM FEW250 25/07 A2972 RMK CI2 SLP063 =
2018-06-20 17:00 METAR CYZX 201700Z 22015G24KT 15SM FEW250 25/08 A2973 RMK CI2 SLP068 =
2018-06-20 16:00 METAR CYZX 201600Z CCA 24019G24KT 15SM FEW250 24/07 A2976 RMK CI2 SLP076 =
2018-06-20 15:00 METAR CYZX 201500Z 26013G19KT 15SM FEW250 23/07 A2976 RMK CI1 SLP079 =
2018-06-20 14:00 METAR CYZX 201400Z 26009KT 15SM FEW250 22/09 A2977 RMK CI1 SLP081 =
2018-06-20 13:00 METAR CYZX 201300Z 25006KT 15SM FEW250 19/10 A2978 RMK CI1 SLP085 =
2018-06-20 12:00 METAR CYZX 201200Z 25009KT 15SM FEW250 17/09 A2979 RMK CI1 SLP087 =
2018-06-20 11:00 METAR CYZX 201100Z 24010KT 15SM FEW250 15/09 A2978 RMK CI1 SLP085 =
2018-06-20 10:00 METAR CYZX 201000Z 25005KT 15SM FEW250 13/09 A2978 RMK CI1 SLP084 =
2018-06-20 09:00 METAR CYZX 200900Z 26002KT 15SM SKC 11/08 A2977 RMK SLP083 =
2018-06-20 08:00 METAR CYZX 200800Z 25005KT 15SM SKC 12/08 A2976 RMK SLP077 =
2018-06-20 07:00 METAR CYZX 200700Z 27006KT 15SM SKC 12/09 A2976 RMK SLP077 =
2018-06-20 06:00 METAR CYZX 200600Z 23007KT 15SM SKC 14/08 A2975 RMK SLP076 =
2018-06-20 05:00 METAR CYZX 200500Z 25004KT 15SM SKC 15/09 A2975 RMK SLP074 =
2018-06-20 04:00 METAR CYZX 200400Z 24006KT 15SM SKC 14/09 A2974 RMK SLP072 =
2018-06-20 03:00 METAR CYZX 200300Z 27006KT 15SM SKC 14/09 A2972 RMK SLP065 =
2018-06-20 02:00 METAR CYZX 200200Z 26005KT 15SM SKC 15/09 A2971 RMK SLP063 =
2018-06-20 01:00 METAR CYZX 200100Z 28005KT 15SM SKC 17/08 A2970 RMK SLP057 =
2018-06-20 00:00 METAR CYZX 200000Z 31009KT 15SM FEW070 18/08 A2967 RMK AC1 SLP048 =
2018-06-19 23:00 METAR CYZX 192300Z 31009G15KT 15SM FEW060 19/09 A2965 RMK SC2 SLP039 =

Support USWX by starting your Amazon purchase here.